Time;durP1;ratioP1;P1;durP2;ratioP2;P2;SDS_P1;SDS_P2;PMS_P1;PMS_P2;Temp;Humidity;BMP_temperature;BMP_pressure;BME280_temperature;BME280_humidity;BME280_pressure;Samples;Min_cycle;Max_cycle;Signal;HPM_P1;HPM_P2
2022/05/08 00:00:05;;;;;;;41.88;28.65;;;;;;;11.58;97.18;98627.14;1752046;80;21415;-90
2022/05/08 00:02:34;;;;;;;41.28;27.17;;;;;;;11.58;97.68;98629.86;1717887;82;21064;-80
2022/05/08 00:05:00;;;;;;;41.02;26.33;;;;;;;11.61;98.46;98623.88;1730489;82;22028;-90
2022/05/08 00:07:26;;;;;;;34.92;22.82;;;;;;;11.61;99.10;98621.16;1742345;81;21006;-90
2022/05/08 00:09:52;;;;;;;35.15;24.00;;;;;;;11.61;99.18;98623.06;1728477;82;20917;-80
2022/05/08 00:12:18;;;;;;;39.73;24.90;;;;;;;11.59;98.55;98617.37;1740777;81;21012;-90
2022/05/08 00:14:44;;;;;;;33.33;23.85;;;;;;;11.58;99.38;98619.81;1743249;82;20886;-80
2022/05/08 00:17:13;;;;;;;36.33;24.27;;;;;;;11.57;99.71;98616.84;1743305;81;21274;-80
2022/05/08 00:19:40;;;;;;;37.73;24.80;;;;;;;11.57;98.58;98618.73;1709210;82;21006;-81
2022/05/08 00:22:06;;;;;;;35.80;24.77;;;;;;;11.54;99.59;98612.50;1767433;80;21524;-90
2022/05/08 00:24:34;;;;;;;36.73;24.43;;;;;;;11.54;99.75;98608.44;1729921;80;22369;-81
2022/05/08 00:27:00;;;;;;;36.35;23.90;;;;;;;11.54;98.49;98611.14;1716998;82;21066;-90
2022/05/08 00:29:25;;;;;;;32.90;21.75;;;;;;;11.52;98.82;98610.58;1732151;80;21837;-80
2022/05/08 00:31:51;;;;;;;40.67;22.42;;;;;;;11.51;98.78;98608.95;1744253;80;20858;-91
2022/05/08 00:34:17;;;;;;;38.17;24.55;;;;;;;11.48;97.75;98604.89;1743335;82;20921;-80
2022/05/08 00:36:43;;;;;;;36.77;25.55;;;;;;;11.45;99.17;98613.59;1726699;82;20933;-80
2022/05/08 00:39:09;;;;;;;40.15;26.20;;;;;;;11.44;100.00;98606.50;1720616;82;20913;-80
2022/05/08 00:41:35;;;;;;;35.90;24.23;;;;;;;11.47;99.02;98605.17;1743444;81;20913;-81
2022/05/08 00:44:01;;;;;;;36.65;24.47;;;;;;;11.47;98.28;98608.70;1722966;80;20884;-80
2022/05/08 00:46:29;;;;;;;34.98;25.02;;;;;;;11.46;97.62;98606.26;1716798;81;21064;-80
2022/05/08 00:48:56;;;;;;;36.05;25.97;;;;;;;11.45;99.30;98605.95;1666058;83;21101;-80
2022/05/08 00:51:22;;;;;;;38.08;25.32;;;;;;;11.48;99.67;98605.44;1685188;84;21052;-80
2022/05/08 00:53:50;;;;;;;34.53;24.15;;;;;;;11.50;99.24;98604.61;1738706;81;21336;-80
2022/05/08 00:56:17;;;;;;;35.00;25.10;;;;;;;11.50;99.58;98609.50;1728972;82;21066;-80
2022/05/08 00:58:45;;;;;;;34.35;24.43;;;;;;;11.49;99.04;98602.98;1703361;82;21068;-92
2022/05/08 01:01:11;;;;;;;34.75;23.32;;;;;;;11.49;98.41;98602.98;1744079;80;20990;-91
2022/05/08 01:03:37;;;;;;;42.00;25.68;;;;;;;11.46;97.69;98601.64;1740236;80;20874;-91
2022/05/08 01:06:06;;;;;;;36.90;24.90;;;;;;;11.40;98.98;98601.36;1731400;82;21076;-90
2022/05/08 01:08:33;;;;;;;37.00;25.55;;;;;;;11.40;99.29;98601.36;1713630;83;21448;-80
2022/05/08 01:11:01;;;;;;;38.80;25.17;;;;;;;11.40;99.44;98604.62;1713214;80;21073;-90
2022/05/08 01:13:27;;;;;;;36.10;24.07;;;;;;;11.39;100.00;98602.45;1720853;81;21013;-90
2022/05/08 01:15:55;;;;;;;35.73;23.40;;;;;;;11.39;98.58;98604.34;1733384;82;21031;-80
2022/05/08 01:18:21;;;;;;;31.57;23.50;;;;;;;11.37;98.46;98606.53;1716223;83;21101;-80
2022/05/08 01:20:47;;;;;;;35.95;24.77;;;;;;;11.35;98.37;98608.13;1706071;82;21058;-80
2022/05/08 01:23:13;;;;;;;33.33;23.40;;;;;;;11.35;99.37;98609.48;1736116;80;21104;-81
2022/05/08 01:25:55;;;;;;;33.25;25.08;;;;;;;11.37;99.04;98607.88;1728446;80;20954;-89
2022/05/08 01:28:22;;;;;;;35.52;24.75;;;;;;;11.38;99.13;98612.22;1735708;80;21436;-81
2022/05/08 01:30:50;;;;;;;36.40;25.50;;;;;;;11.36;98.26;98607.05;1734586;82;21092;-80
2022/05/08 01:33:16;;;;;;;30.07;22.67;;;;;;;11.35;98.90;98613.55;1727311;80;21076;-80
2022/05/08 01:35:42;;;;;;;35.33;24.20;;;;;;;11.34;97.88;98605.15;1726041;82;20906;-80
2022/05/08 01:38:10;;;;;;;37.80;24.35;;;;;;;11.33;97.70;98608.13;1731629;82;20878;-91
2022/05/08 01:40:35;;;;;;;38.10;26.30;;;;;;;11.33;97.57;98606.78;1716856;83;21485;-80
2022/05/08 01:43:01;;;;;;;36.50;24.92;;;;;;;11.30;97.55;98604.88;1724029;82;21209;-80
2022/05/08 01:45:28;;;;;;;37.85;25.97;;;;;;;11.32;97.70;98603.80;1725939;82;20972;-89
2022/05/08 01:50:38;;;;;;;46.28;29.77;;;;;;;11.28;100.00;98604.89;1724377;80;21022;-90
2022/05/08 01:53:05;;;;;;;41.35;26.80;;;;;;;11.29;99.83;98600.55;1730300;81;21073;-80
2022/05/08 01:55:31;;;;;;;40.60;27.90;;;;;;;11.32;100.00;98601.90;1716511;80;21216;-79
2022/05/08 01:57:58;;;;;;;38.53;26.40;;;;;;;11.33;100.00;98601.35;1728597;80;21010;-80
2022/05/08 02:00:24;;;;;;;36.15;25.00;;;;;;;11.34;100.00;98607.05;1757088;80;20989;-90
2022/05/08 02:02:50;;;;;;;31.93;22.65;;;;;;;11.36;100.00;98600.80;1679159;85;21519;-90
2022/05/08 02:05:17;;;;;;;36.40;22.13;;;;;;;11.36;100.00;98608.39;1733237;81;21052;-91
2022/05/08 02:07:45;;;;;;;33.25;24.30;;;;;;;11.35;100.00;98608.13;1711911;83;21457;-80
2022/05/08 02:10:12;;;;;;;37.40;25.57;;;;;;;11.36;100.00;98603.52;1703940;82;21003;-80
2022/05/08 02:12:38;;;;;;;35.08;24.25;;;;;;;11.36;99.59;98604.88;1703468;82;22055;-81
2022/05/08 02:15:09;;;;;;;31.33;21.77;;;;;;;11.31;99.00;98608.41;1703209;82;21006;-80
2022/05/08 02:17:35;;;;;;;30.88;23.10;;;;;;;11.27;98.77;98607.30;1737169;80;21532;-81
2022/05/08 02:20:02;;;;;;;35.38;23.47;;;;;;;11.23;98.68;98602.97;1741814;80;21296;-86
2022/05/08 02:22:28;;;;;;;32.93;22.52;;;;;;;11.23;98.79;98603.52;1708115;80;21268;-80
2022/05/08 02:24:53;;;;;;;35.13;25.57;;;;;;;11.21;100.00;98602.44;1724339;80;20930;-90
2022/05/08 02:27:20;;;;;;;36.28;25.95;;;;;;;11.25;99.33;98605.41;1726275;80;21564;-89
2022/05/08 02:29:49;;;;;;;36.70;26.27;;;;;;;11.26;100.00;98607.04;1743960;80;20985;-91
2022/05/08 02:32:15;;;;;;;38.28;25.50;;;;;;;11.29;100.00;98607.33;1723843;82;21441;-80
2022/05/08 02:34:41;;;;;;;36.53;25.90;;;;;;;11.32;100.00;98607.33;1709359;82;20888;-80
2022/05/08 02:37:07;;;;;;;37.88;26.35;;;;;;;11.35;100.00;98600.53;1767702;80;21009;-91
2022/05/08 02:39:33;;;;;;;39.40;28.17;;;;;;;11.34;100.00;98599.72;1756743;80;21602;-80
2022/05/08 02:41:59;;;;;;;33.40;24.70;;;;;;;11.34;100.00;98605.15;1714932;83;20886;-80
2022/05/08 02:44:25;;;;;;;38.25;26.73;;;;;;;11.35;100.00;98601.89;1718400;80;21073;-90
2022/05/08 02:46:51;;;;;;;34.98;24.60;;;;;;;11.34;100.00;98607.05;1728866;80;20950;-91
2022/05/08 02:49:17;;;;;;;36.73;25.12;;;;;;;11.34;100.00;98613.28;1759864;80;20982;-89
2022/05/08 02:51:43;;;;;;;36.48;25.27;;;;;;;11.34;100.00;98613.28;1729026;80;21006;-80
2022/05/08 02:54:09;;;;;;;36.53;25.23;;;;;;;11.35;100.00;98608.67;1728204;82;20918;-80
2022/05/08 02:59:19;;;;;;;39.92;27.40;;;;;;;11.34;100.00;98618.72;1735170;80;20949;-91
2022/05/08 03:01:45;;;;;;;39.55;27.17;;;;;;;11.34;100.00;98617.90;1744815;80;20890;-91
2022/05/08 03:04:11;;;;;;;34.88;24.67;;;;;;;11.33;100.00;98616.27;1756695;80;20869;-81
2022/05/08 03:06:38;;;;;;;35.90;26.12;;;;;;;11.32;100.00;98616.01;1679328;85;20933;-91
2022/05/08 03:09:04;;;;;;;41.00;28.70;;;;;;;11.31;100.00;98615.20;1705745;82;22068;-91
2022/05/08 03:11:30;;;;;;;36.23;25.90;;;;;;;11.30;100.00;98617.09;1718116;80;21046;-91
2022/05/08 03:13:57;;;;;;;39.15;26.97;;;;;;;11.29;100.00;98616.02;1726747;80;20887;-80
2022/05/08 03:16:23;;;;;;;41.33;28.77;;;;;;;11.24;100.00;98621.42;1701139;83;21060;-90
2022/05/08 03:18:49;;;;;;;39.18;28.32;;;;;;;11.26;100.00;98618.70;1713122;82;21064;-90
2022/05/08 03:21:15;;;;;;;36.63;26.70;;;;;;;11.26;100.00;98615.98;1677391;82;21154;-81
2022/05/08 03:23:42;;;;;;;36.83;26.55;;;;;;;11.27;100.00;98622.22;1694122;84;20917;-80
2022/05/08 03:26:08;;;;;;;38.08;27.35;;;;;;;11.24;100.00;98620.87;1730744;82;21032;-92
2022/05/08 03:28:35;;;;;;;39.27;28.60;;;;;;;11.23;100.00;98616.53;1713744;83;20917;-80
2022/05/08 03:31:02;;;;;;;35.45;25.05;;;;;;;11.25;100.00;98625.76;1692277;83;21008;-81
2022/05/08 03:33:28;;;;;;;37.08;26.35;;;;;;;11.26;100.00;98624.13;1708153;82;21299;-80
2022/05/08 03:35:54;;;;;;;39.63;28.07;;;;;;;11.27;100.00;98625.75;1721816;80;21048;-92
2022/05/08 03:38:21;;;;;;;42.10;26.65;;;;;;;11.28;100.00;98629.31;1723341;82;20878;-80
2022/05/08 03:40:47;;;;;;;36.35;25.20;;;;;;;11.28;100.00;98630.13;1713744;80;20991;-92
2022/05/08 03:43:13;;;;;;;36.95;25.10;;;;;;;11.29;100.00;98632.30;1735096;80;21048;-80
2022/05/08 03:45:39;;;;;;;30.52;23.83;;;;;;;11.29;100.00;98626.86;1718829;82;21257;-91
2022/05/08 03:48:06;;;;;;;33.50;24.05;;;;;;;11.30;100.00;98631.20;1719249;80;21021;-80
2022/05/08 03:50:32;;;;;;;32.60;24.05;;;;;;;11.32;100.00;98636.36;1725746;80;21054;-80
2022/05/08 03:52:59;;;;;;;35.43;25.02;;;;;;;11.32;100.00;98630.93;1718407;82;20945;-91
2022/05/08 03:55:25;;;;;;;41.90;25.92;;;;;;;11.34;100.00;98639.06;1731220;82;21479;-80
2022/05/08 03:57:51;;;;;;;36.53;25.35;;;;;;;11.38;100.00;98644.78;1731938;80;21146;-81
2022/05/08 04:00:19;;;;;;;35.38;25.27;;;;;;;11.40;100.00;98648.84;1744775;80;20937;-81
2022/05/08 04:02:45;;;;;;;33.02;24.40;;;;;;;11.41;100.00;98647.76;1721109;80;21069;-92
2022/05/08 04:05:11;;;;;;;34.88;25.50;;;;;;;11.43;100.00;98651.02;1737701;80;20848;-91
2022/05/08 04:07:40;;;;;;;37.03;25.12;;;;;;;11.47;100.00;98652.11;1711856;82;20919;-80
2022/05/08 04:10:07;;;;;;;36.15;27.45;;;;;;;11.49;100.00;98654.01;1718540;80;21518;-80
2022/05/08 04:12:34;;;;;;;33.60;23.38;;;;;;;11.50;100.00;98656.18;1728845;80;21395;-80
2022/05/08 04:15:00;;;;;;;34.35;24.00;;;;;;;11.50;100.00;98649.39;1757010;80;21087;-91
2022/05/08 04:17:29;;;;;;;33.25;24.10;;;;;;;11.51;100.00;98657.27;1730075;80;20923;-91
2022/05/08 04:19:56;;;;;;;31.50;23.15;;;;;;;11.53;100.00;98653.73;1720744;82;21467;-81
2022/05/08 04:25:08;;;;;;;33.67;24.82;;;;;;;11.55;100.00;98653.48;1720313;80;21447;-80
2022/05/08 04:27:35;;;;;;;33.60;24.35;;;;;;;11.57;100.00;98656.73;1743819;81;21485;-91
2022/05/08 04:30:03;;;;;;;31.90;23.92;;;;;;;11.62;100.00;98659.44;1726352;82;21001;-80
2022/05/08 04:32:29;;;;;;;33.73;24.18;;;;;;;11.66;100.00;98656.47;1726229;80;21039;-80
2022/05/08 04:34:55;;;;;;;34.08;24.60;;;;;;;11.69;100.00;98656.45;1745233;80;21191;-91
2022/05/08 04:37:20;;;;;;;34.58;25.97;;;;;;;11.74;100.00;98657.28;1738926;82;21008;-80
2022/05/08 04:39:46;;;;;;;34.58;26.37;;;;;;;11.80;100.00;98661.66;1715930;80;20970;-81
2022/05/08 04:42:12;;;;;;;34.25;25.90;;;;;;;11.86;100.00;98665.98;1720754;83;20909;-92
2022/05/08 04:44:38;;;;;;;40.92;29.67;;;;;;;11.93;100.00;98657.57;1714622;82;20952;-92
2022/05/08 04:47:04;;;;;;;60.83;34.45;;;;;;;12.01;100.00;98661.09;1738659;81;21105;-92
2022/05/08 04:49:30;;;;;;;43.33;30.62;;;;;;;12.06;100.00;98669.25;1715718;82;21024;-80
2022/05/08 04:51:56;;;;;;;38.95;29.15;;;;;;;12.14;100.00;98663.81;1711089;82;20958;-81
2022/05/08 04:54:26;;;;;;;39.70;29.80;;;;;;;12.17;100.00;98665.97;1727316;80;21076;-91
2022/05/08 04:56:51;;;;;;;41.53;27.67;;;;;;;12.22;100.00;98675.48;1721502;82;21029;-91
2022/05/08 04:59:17;;;;;;;46.60;33.53;;;;;;;12.25;100.00;98665.96;1726018;80;21374;-80
2022/05/08 05:01:43;;;;;;;88.22;44.33;;;;;;;12.31;100.00;98668.95;1730522;80;20977;-80
2022/05/08 05:04:10;;;;;;;95.90;43.68;;;;;;;12.29;100.00;98673.81;1731260;80;21025;-80
2022/05/08 05:06:36;;;;;;;63.70;42.62;;;;;;;12.30;100.00;98677.61;1738815;80;20893;-92
2022/05/08 05:09:02;;;;;;;37.33;26.55;;;;;;;12.31;100.00;98677.09;1679172;85;21001;-91
2022/05/08 05:11:27;;;;;;;146.57;66.40;;;;;;;12.29;100.00;98678.70;1743361;81;21226;-80
2022/05/08 05:13:53;;;;;;;57.45;34.15;;;;;;;12.31;100.00;98683.89;1728433;82;21654;-80
2022/05/08 05:16:19;;;;;;;54.83;31.82;;;;;;;12.33;100.00;98685.23;1728006;82;20870;-91
2022/05/08 05:18:45;;;;;;;80.40;47.70;;;;;;;12.36;100.00;98685.22;1731113;82;20886;-90
2022/05/08 05:21:11;;;;;;;75.35;39.90;;;;;;;12.34;100.00;98684.14;1714784;80;20966;-81
2022/05/08 05:23:37;;;;;;;100.07;46.73;;;;;;;12.33;100.00;98689.86;1719609;81;21142;-80
2022/05/08 05:26:03;;;;;;;64.12;35.15;;;;;;;12.37;100.00;98686.84;1733242;80;21057;-81
2022/05/08 05:28:30;;;;;;;35.33;26.42;;;;;;;12.42;100.00;98690.92;1715809;83;21033;-90
2022/05/08 05:30:56;;;;;;;52.38;34.88;;;;;;;12.43;100.00;98689.28;1709929;82;21057;-86
2022/05/08 05:33:22;;;;;;;74.50;40.60;;;;;;;12.47;100.00;98692.80;1708323;83;20870;-91
2022/05/08 05:35:48;;;;;;;59.90;34.33;;;;;;;12.49;100.00;98693.36;1740331;82;21313;-81
2022/05/08 05:38:14;;;;;;;51.80;32.73;;;;;;;12.50;100.00;98695.80;1726000;81;20930;-81
2022/05/08 05:40:40;;;;;;;43.17;30.45;;;;;;;12.49;100.00;98698.25;1736586;80;20893;-90
2022/05/08 05:43:06;;;;;;;62.53;36.13;;;;;;;12.47;100.00;98698.23;1754749;80;21000;-91
2022/05/08 05:45:32;;;;;;;58.13;41.30;;;;;;;12.48;100.00;98693.09;1719633;80;21004;-80
2022/05/08 05:48:00;;;;;;;38.98;30.35;;;;;;;12.47;100.00;98699.59;1758426;80;21086;-90
2022/05/08 05:50:26;;;;;;;60.08;36.30;;;;;;;12.44;100.00;98703.69;1715717;80;21093;-90
2022/05/08 05:52:52;;;;;;;52.70;32.25;;;;;;;12.45;100.00;98701.23;1728367;81;21016;-81
2022/05/08 05:55:18;;;;;;;38.55;26.50;;;;;;;12.47;100.00;98706.39;1743715;82;20978;-91
2022/05/08 05:57:44;;;;;;;36.83;26.70;;;;;;;12.36;100.00;98696.91;1743275;81;21030;-91
2022/05/08 06:00:15;;;;;;;41.63;27.02;;;;;;;12.46;100.00;98706.94;1742508;82;21315;-91
2022/05/08 06:02:43;;;;;;;44.27;28.70;;;;;;;12.47;100.00;98711.83;1710240;82;21030;-90
2022/05/08 06:05:10;;;;;;;61.20;41.23;;;;;;;12.44;100.00;98706.41;1705380;80;21093;-91
2022/05/08 06:07:37;;;;;;;49.25;35.75;;;;;;;12.41;100.00;98712.41;1768228;80;21071;-80
2022/05/08 06:10:06;;;;;;;50.80;31.82;;;;;;;12.44;100.00;98706.41;1716815;83;21087;-90
2022/05/08 06:12:32;;;;;;;66.30;38.45;;;;;;;12.46;100.00;98708.84;1712831;82;21491;-91
2022/05/08 06:14:58;;;;;;;57.67;34.90;;;;;;;12.45;100.00;98705.31;1727398;82;20858;-80
2022/05/08 06:17:24;;;;;;;62.80;40.10;;;;;;;12.42;100.00;98706.69;1707712;82;20903;-91
2022/05/08 06:19:50;;;;;;;42.17;29.80;;;;;;;12.42;100.00;98714.03;1725154;82;21051;-89
2022/05/08 06:22:16;;;;;;;81.20;41.77;;;;;;;12.39;100.00;98711.33;1726692;80;20895;-90
2022/05/08 06:24:41;;;;;;;68.92;46.70;;;;;;;12.42;100.00;98710.77;1722433;83;21145;-91
2022/05/08 06:27:07;;;;;;;44.40;35.30;;;;;;;12.41;100.00;98711.05;1726302;80;20891;-80
2022/05/08 06:29:33;;;;;;;41.28;31.42;;;;;;;12.42;100.00;98709.41;1719733;80;20903;-80
2022/05/08 06:31:59;;;;;;;57.60;34.70;;;;;;;12.45;100.00;98712.66;1728776;80;21477;-81
2022/05/08 06:34:26;;;;;;;53.60;34.05;;;;;;;12.49;100.00;98713.75;1733804;80;20893;-81
2022/05/08 06:36:53;;;;;;;58.60;44.53;;;;;;;12.49;100.00;98714.56;1706702;82;21074;-91
2022/05/08 06:39:20;;;;;;;83.55;43.70;;;;;;;12.52;100.00;98719.44;1740002;82;21089;-91
2022/05/08 06:41:46;;;;;;;58.20;33.13;;;;;;;12.52;100.00;98724.06;1743405;81;20978;-91
2022/05/08 06:44:13;;;;;;;58.78;42.23;;;;;;;12.53;100.00;98727.86;1743600;82;20874;-81
2022/05/08 06:46:39;;;;;;;36.35;27.07;;;;;;;12.55;100.00;98728.39;1724066;82;21136;-80
2022/05/08 06:49:06;;;;;;;34.63;24.47;;;;;;;12.57;100.00;98729.50;1716598;80;21824;-91
2022/05/08 06:51:34;;;;;;;39.40;27.15;;;;;;;12.59;100.00;98723.23;1737436;80;21045;-90
2022/05/08 06:54:00;;;;;;;61.50;34.33;;;;;;;12.62;100.00;98728.11;1713064;82;21075;-90
2022/05/08 06:56:26;;;;;;;55.80;35.25;;;;;;;12.67;100.00;98717.23;1732362;80;21374;-81
2022/05/08 07:01:38;;;;;;;84.42;41.42;;;;;;;12.70;99.88;98721.56;1728510;80;21123;-80
2022/05/08 07:04:06;;;;;;;75.05;38.55;;;;;;;12.71;99.76;98729.17;1731591;80;21013;-80
2022/05/08 07:06:32;;;;;;;46.83;28.30;;;;;;;12.73;99.90;98724.27;1740406;80;21072;-87
2022/05/08 07:08:58;;;;;;;44.15;27.05;;;;;;;12.74;99.84;98724.56;1709207;80;20891;-80
2022/05/08 07:11:25;;;;;;;68.65;37.42;;;;;;;12.81;99.84;98718.80;1728539;80;20966;-91
2022/05/08 07:13:51;;;;;;;69.47;37.78;;;;;;;12.83;99.66;98723.45;1728768;80;21054;-91
2022/05/08 07:16:17;;;;;;;58.58;35.80;;;;;;;12.82;99.59;98724.52;1716978;82;21375;-80
2022/05/08 07:18:43;;;;;;;45.80;31.35;;;;;;;12.83;99.65;98728.89;1719450;80;20987;-82
2022/05/08 07:21:08;;;;;;;42.30;29.12;;;;;;;12.88;99.70;98727.49;1734878;80;20882;-91
2022/05/08 07:23:34;;;;;;;29.37;22.22;;;;;;;12.92;99.50;98724.50;1743389;81;20933;-81
2022/05/08 07:26:00;;;;;;;29.92;22.75;;;;;;;12.92;99.70;98733.47;1743339;82;21138;-80
2022/05/08 07:28:28;;;;;;;31.75;24.55;;;;;;;12.97;99.70;98732.62;1743130;81;20898;-91
2022/05/08 07:30:54;;;;;;;75.30;46.20;;;;;;;13.02;99.75;98728.54;1725573;80;20990;-91
2022/05/08 07:33:21;;;;;;;57.43;40.08;;;;;;;13.10;99.51;98738.03;1728964;81;21058;-80
2022/05/08 07:38:31;;;;;;;64.47;36.68;;;;;;;13.09;99.48;98733.69;1745600;80;21117;-80
2022/05/08 07:40:58;;;;;;;56.85;37.03;;;;;;;13.17;99.69;98734.47;1716097;82;39560;-81
2022/05/08 07:43:25;;;;;;;50.92;32.98;;;;;;;13.17;99.29;98739.36;1728079;81;21073;-81
2022/05/08 07:45:51;;;;;;;52.53;34.43;;;;;;;13.15;99.54;98742.07;1711768;80;21447;-81
2022/05/08 07:48:17;;;;;;;36.85;27.98;;;;;;;13.21;99.55;98743.17;1736747;81;20891;-80
2022/05/08 07:50:45;;;;;;;52.73;35.20;;;;;;;13.27;99.51;98742.61;1724339;80;21265;-91
2022/05/08 07:53:13;;;;;;;58.78;36.25;;;;;;;13.29;99.50;98737.70;1739488;81;20981;-81
2022/05/08 07:55:40;;;;;;;34.03;23.83;;;;;;;13.39;99.50;98746.35;1731571;82;21153;-91
2022/05/08 07:58:06;;;;;;;38.45;26.27;;;;;;;13.44;99.42;98738.98;1709784;83;21476;-84
2022/05/08 08:00:32;;;;;;;34.27;25.30;;;;;;;13.52;99.37;98742.48;1722922;80;21023;-80
2022/05/08 08:02:58;;;;;;;50.35;30.97;;;;;;;13.63;99.13;98739.69;1733400;81;21066;-91
2022/05/08 08:05:23;;;;;;;40.28;27.87;;;;;;;13.73;98.96;98740.42;1743417;82;20902;-91
2022/05/08 08:07:50;;;;;;;41.45;25.95;;;;;;;13.77;98.49;98743.42;1735283;81;20968;-80
2022/05/08 08:10:16;;;;;;;47.98;29.20;;;;;;;13.82;98.50;98744.73;1731320;80;21029;-80
2022/05/08 08:12:42;;;;;;;54.55;31.27;;;;;;;13.95;98.42;98750.91;1719888;82;20995;-84
2022/05/08 08:15:09;;;;;;;40.20;26.12;;;;;;;14.05;97.97;98748.66;1741151;82;21133;-81
2022/05/08 08:17:35;;;;;;;32.03;23.27;;;;;;;14.08;97.99;98751.61;1705045;83;21036;-90
2022/05/08 08:20:03;;;;;;;31.20;24.27;;;;;;;14.20;97.70;98749.09;1730518;82;21484;-81
2022/05/08 08:22:29;;;;;;;29.98;19.55;;;;;;;14.26;97.54;98746.02;1718132;82;21084;-92
2022/05/08 08:24:54;;;;;;;27.42;20.32;;;;;;;14.41;96.73;98749.16;1708703;82;20867;-81
2022/05/08 08:27:20;;;;;;;21.55;18.23;;;;;;;14.38;95.92;98752.47;1705088;80;22007;-92
2022/05/08 08:29:47;;;;;;;21.40;18.92;;;;;;;14.42;95.73;98747.25;1728911;80;21038;-91
2022/05/08 08:32:13;;;;;;;23.15;18.60;;;;;;;14.40;95.77;98749.71;1743045;80;20903;-91
2022/05/08 08:34:39;;;;;;;27.87;21.42;;;;;;;14.52;95.76;98756.72;1744467;80;20985;-92
2022/05/08 08:37:05;;;;;;;27.55;21.87;;;;;;;14.63;95.46;98758.27;1743530;81;20917;-91
2022/05/08 08:39:31;;;;;;;24.98;18.55;;;;;;;14.77;95.35;98756.46;1743631;82;21947;-81
2022/05/08 08:42:18;;;;;;;26.90;20.37;;;;;;;14.90;94.90;98758.52;1743155;81;20977;-81
2022/05/08 08:47:44;;;;;;;32.38;22.73;;;;;;;15.03;94.32;98754.81;1689906;82;21006;-85
2022/05/08 08:50:11;;;;;;;24.50;20.52;;;;;;;15.14;93.99;98757.16;1721146;80;20991;-92
2022/05/08 08:52:37;;;;;;;32.17;23.57;;;;;;;15.28;93.53;98759.16;1765949;80;21125;-81
2022/05/08 08:55:08;;;;;;;30.45;23.47;;;;;;;15.33;92.93;98753.64;1714657;82;20991;-92
2022/05/08 08:57:34;;;;;;;29.72;20.80;;;;;;;15.37;93.21;98758.21;1711788;82;21094;-92
2022/05/08 09:00:00;;;;;;;27.15;21.02;;;;;;;15.54;92.67;98756.34;1725997;80;21072;-92
2022/05/08 09:02:26;;;;;;;40.12;26.77;;;;;;;15.66;92.05;98753.23;1717560;80;21030;-80
2022/05/08 09:04:54;;;;;;;27.73;21.30;;;;;;;15.76;91.82;98755.81;1743614;82;21955;-93
2022/05/08 09:07:48;;;;;;;24.10;18.52;;;;;;;15.87;91.05;98751.81;1717733;82;21461;-92
2022/05/08 09:10:27;;;;;;;29.37;21.62;;;;;;;15.87;90.88;98751.00;1719711;82;21061;-80
2022/05/08 09:13:04;;;;;;;25.37;20.48;;;;;;;15.91;90.85;98754.22;1732146;82;20986;-80
2022/05/08 09:15:32;;;;;;;26.68;21.15;;;;;;;15.94;91.00;98754.98;1707610;80;22121;-86
2022/05/08 09:18:09;;;;;;;27.87;21.10;;;;;;;16.05;91.27;98755.62;1723964;81;21247;-93
2022/05/08 09:20:40;;;;;;;24.27;19.73;;;;;;;16.18;91.04;98756.81;1713833;80;21436;-93
2022/05/08 09:23:15;;;;;;;23.95;19.32;;;;;;;16.16;90.25;98755.75;1733899;81;21056;-91
2022/05/08 09:26:00;;;;;;;25.48;19.85;;;;;;;16.08;89.66;98755.87;1722077;82;21476;-81
2022/05/08 09:28:41;;;;;;;23.42;20.72;;;;;;;15.99;90.17;98759.58;1728018;81;21020;-92
2022/05/08 09:31:14;;;;;;;30.52;22.90;;;;;;;16.03;89.65;98755.12;1709505;82;21829;-93
2022/05/08 09:33:45;;;;;;;26.25;20.32;;;;;;;16.17;90.29;98756.00;1718621;80;21435;-81
2022/05/08 09:36:23;;;;;;;28.47;24.18;;;;;;;16.28;90.27;98756.08;1735144;80;21005;-81
2022/05/08 09:38:56;;;;;;;26.35;20.27;;;;;;;16.35;90.05;98759.25;1725509;82;21063;-92
2022/05/08 09:41:30;;;;;;;23.92;19.95;;;;;;;16.38;89.42;98756.46;1743266;81;21002;-93
2022/05/08 09:44:12;;;;;;;24.50;20.65;;;;;;;16.35;88.49;98750.23;1740279;82;21571;-93
2022/05/08 09:46:39;;;;;;;27.02;22.42;;;;;;;16.27;88.69;98750.92;1707112;82;21130;-81
2022/05/08 09:49:09;;;;;;;27.73;21.50;;;;;;;16.27;88.59;98752.28;1708234;80;21059;-80
2022/05/08 09:51:35;;;;;;;32.88;23.92;;;;;;;16.32;89.00;98744.81;1719471;82;21014;-93
2022/05/08 09:54:01;;;;;;;23.77;18.30;;;;;;;16.44;88.99;98749.80;1747192;80;21021;-92
2022/05/08 09:56:27;;;;;;;27.52;17.48;;;;;;;16.50;87.40;98745.88;1723305;81;21438;-91
2022/05/08 09:58:53;;;;;;;18.73;15.55;;;;;;;16.46;87.40;98740.73;1715302;83;20894;-93
2022/05/08 10:01:19;;;;;;;22.07;16.85;;;;;;;16.44;87.68;98742.16;1721325;80;20971;-81
2022/05/08 10:03:45;;;;;;;22.58;17.65;;;;;;;16.50;87.31;98740.95;1729196;80;21003;-92
2022/05/08 10:06:10;;;;;;;22.37;17.02;;;;;;;16.58;87.20;98734.80;1708691;83;21420;-93
2022/05/08 10:08:37;;;;;;;17.00;13.83;;;;;;;16.62;86.43;98737.17;1731235;82;21088;-92
2022/05/08 10:14:00;;;;;;;17.00;13.28;;;;;;;16.61;86.81;98734.19;1734913;82;21009;-81
2022/05/08 10:16:58;;;;;;;15.78;13.32;;;;;;;16.65;86.43;98736.55;1743390;81;21429;-92
2022/05/08 10:19:33;;;;;;;18.30;14.33;;;;;;;16.69;84.67;98738.98;1713345;82;26378;-81
2022/05/08 10:22:03;;;;;;;16.52;14.00;;;;;;;16.63;84.99;98736.86;1734598;80;21886;-92
2022/05/08 10:24:34;;;;;;;16.70;13.28;;;;;;;16.68;84.81;98729.13;1737632;80;21001;-90
2022/05/08 10:27:26;;;;;;;18.62;15.10;;;;;;;16.69;84.65;98732.14;1739395;80;21538;-92
2022/05/08 10:29:58;;;;;;;20.60;16.17;;;;;;;16.59;84.73;98726.28;1713946;83;21026;-81
2022/05/08 10:32:35;;;;;;;21.87;16.73;;;;;;;16.60;85.19;98725.16;1729694;80;21516;-93
2022/05/08 10:35:20;;;;;;;17.98;14.87;;;;;;;16.67;85.16;98727.51;1717712;80;21030;-81
2022/05/08 10:37:47;;;;;;;20.95;17.52;;;;;;;16.70;85.00;98729.66;1733708;82;20995;-81
2022/05/08 10:40:28;;;;;;;19.98;16.55;;;;;;;16.70;84.89;98727.48;1685856;82;21086;-93
2022/05/08 10:43:19;;;;;;;24.87;16.60;;;;;;;16.67;84.95;98727.51;1698101;83;21468;-81
2022/05/08 10:45:44;;;;;;;20.97;15.72;;;;;;;16.66;84.73;98728.59;1664585;82;21016;-93
2022/05/08 10:48:17;;;;;;;19.55;15.93;;;;;;;16.68;85.17;98726.39;1734298;81;21312;-93
2022/05/08 10:50:53;;;;;;;17.75;14.65;;;;;;;16.69;84.62;98730.78;1721524;82;21001;-81
2022/05/08 10:53:32;;;;;;;19.90;15.20;;;;;;;16.68;84.31;98724.22;1737368;81;21422;-93
2022/05/08 10:56:03;;;;;;;20.27;14.95;;;;;;;16.59;84.71;98730.94;1732797;82;21533;-81
2022/05/08 10:58:29;;;;;;;19.07;15.38;;;;;;;16.61;84.13;98723.23;1707973;82;21081;-81
2022/05/08 11:00:57;;;;;;;17.32;15.50;;;;;;;16.52;83.80;98723.13;1727199;80;21798;-93
2022/05/08 11:03:24;;;;;;;21.40;15.93;;;;;;;16.45;84.16;98717.23;1754092;80;21056;-81
2022/05/08 11:05:50;;;;;;;19.87;16.67;;;;;;;16.45;84.23;98715.86;1724989;80;21014;-92
2022/05/08 11:08:31;;;;;;;21.02;16.62;;;;;;;16.45;84.74;98714.49;1735366;80;21020;-81
2022/05/08 11:11:07;;;;;;;17.77;15.68;;;;;;;16.53;84.64;98711.63;1721633;82;21001;-82
2022/05/08 11:13:48;;;;;;;19.67;15.32;;;;;;;16.54;84.45;98710.50;1729138;82;21427;-92
2022/05/08 11:16:34;;;;;;;23.00;15.43;;;;;;;16.55;84.63;98705.28;1742206;82;21056;-82
2022/05/08 11:19:00;;;;;;;24.37;16.27;;;;;;;16.63;84.73;98706.77;1719782;82;21104;-81
2022/05/08 11:21:26;;;;;;;19.70;15.25;;;;;;;16.76;84.36;98698.36;1703182;82;21068;-81
2022/05/08 11:23:54;;;;;;;18.87;14.47;;;;;;;16.83;84.45;98702.03;1710821;83;21547;-81
2022/05/08 11:26:29;;;;;;;16.05;13.40;;;;;;;16.89;83.82;98698.91;1713815;82;21123;-81
2022/05/08 11:28:58;;;;;;;27.65;15.68;;;;;;;16.89;83.50;98696.72;1705863;82;20977;-81
2022/05/08 11:31:25;;;;;;;24.32;17.52;;;;;;;16.86;83.89;98696.78;1716870;80;21165;-94
2022/05/08 11:36:37;;;;;;;18.62;16.62;;;;;;;16.99;83.78;98688.86;1743137;81;21251;-94
2022/05/08 11:39:06;;;;;;;26.93;17.80;;;;;;;17.03;83.48;98687.14;1720514;82;21299;-93